»·PEaware :: N522PM KSNA-KPSP

N522PM :: KSNA-KPSP

FLIGHT INFORMATION

Flight Status: Arrived
Operator: Privately registered:
United States
More flights under this callsign
Pilot: Bruce B. (6887)
Aircraft: Unknown
(E50P)
More flights by this aircraft type
Origin: KSNA John Wayne-Orange Co
United States
Destination: KPSP Palm Springs Intl
United States
More flights between these airports :: More routes between these airports
Route: MUSEL8 TRM
File this flight plan on PilotEdge
Remarks:
Altitude:
(Current/Filed)
11,000ft
Speed:
(Current/Filed)
275kts
Departed: 07-Jan-18 03:37 PM
Arrived: 07-Jan-18 04:08 PM
Distance/Time
Traveled:
68nm/0:31
Distance/Time
To Go:
Arrived

Flight Plot

Page will automatically refresh every two minutes.

Flight plan parsing failed; only flown route is shown


Map Options




Map Legend


Flown Route
Filed Route
Departure Airport
Arrival Airport
Navaid (VOR, NDB)
Fix

Horizontal Profiles

Position Reports

Time Latitude Longitude Heading Altitude Ground
Speed
07-Jan-18 15:22 33.672039 -117.867433 209 61ft 0kts
07-Jan-18 15:23 33.672039 -117.867433 209 61ft 0kts
07-Jan-18 15:24 33.672039 -117.867433 209 61ft 0kts
07-Jan-18 15:25 33.672039 -117.867433 209 61ft 0kts
07-Jan-18 15:26 33.672039 -117.867433 209 61ft 0kts
07-Jan-18 15:27 33.672039 -117.867433 209 61ft 0kts
07-Jan-18 15:28 33.672039 -117.867433 209 61ft 0kts
07-Jan-18 15:29 33.672039 -117.867433 209 61ft 0kts
07-Jan-18 15:30 33.672039 -117.867433 209 61ft 0kts
07-Jan-18 15:31 33.672039 -117.867433 209 61ft 0kts
07-Jan-18 15:32 33.672039 -117.867433 209 61ft 0kts
07-Jan-18 15:33 33.672039 -117.867433 209 61ft 0kts
07-Jan-18 15:34 33.672039 -117.867433 209 61ft 0kts
07-Jan-18 15:35 33.672039 -117.867433 209 61ft 0kts
07-Jan-18 15:36 33.672039 -117.867433 209 61ft 0kts
07-Jan-18 15:37 33.673436 -117.866918 28 61ft 15kts
07-Jan-18 15:38 33.677710 -117.864205 27 61ft 17kts
07-Jan-18 15:39 33.680588 -117.863015 298 61ft 0kts
07-Jan-18 15:40 33.680628 -117.863104 298 61ft 0kts
07-Jan-18 15:41 33.680629 -117.863106 298 61ft 0kts
07-Jan-18 15:42 33.681249 -117.865343 210 61ft 0kts
07-Jan-18 15:43 33.664525 -117.875950 207 442ft 118kts
07-Jan-18 15:44 33.623171 -117.889256 186 2014ft 182kts
07-Jan-18 15:45 33.560941 -117.899552 189 3283ft 257kts
07-Jan-18 15:46 33.504186 -117.893323 104 5342ft 175kts
07-Jan-18 15:47 33.507015 -117.841577 82 6565ft 151kts
07-Jan-18 15:48 33.512779 -117.784892 82 7016ft 205kts
07-Jan-18 15:49 33.520976 -117.705398 82 7008ft 269kts
07-Jan-18 15:50 33.530349 -117.614963 82 6998ft 274kts
07-Jan-18 15:51 33.539767 -117.524103 82 6996ft 273kts
07-Jan-18 15:52 33.549143 -117.433880 82 6996ft 273kts
07-Jan-18 15:53 33.563893 -117.345222 60 6998ft 273kts
07-Jan-18 15:54 33.606731 -117.273286 52 8195ft 248kts
07-Jan-18 15:55 33.644915 -117.212500 52 10227ft 207kts
07-Jan-18 15:56 33.679642 -117.156293 52 11011ft 226kts
07-Jan-18 15:57 33.716633 -117.088332 81 11018ft 262kts
07-Jan-18 15:58 33.701157 -116.998927 96 11008ft 284kts
07-Jan-18 15:59 33.692813 -116.903501 95 11005ft 286kts
07-Jan-18 16:00 33.684805 -116.812208 94 11000ft 280kts
07-Jan-18 16:01 33.677077 -116.720133 95 10434ft 279kts
07-Jan-18 16:02 33.669248 -116.628872 95 9170ft 255kts
07-Jan-18 16:03 33.662123 -116.552043 94 9018ft 208kts
07-Jan-18 16:04 33.656911 -116.483762 93 8681ft 207kts
07-Jan-18 16:05 33.650532 -116.417460 95 7256ft 190kts
07-Jan-18 16:06 33.645041 -116.359057 95 6676ft 170kts
07-Jan-18 16:07 33.669748 -116.342631 322 5211ft 153kts
07-Jan-18 16:08 33.698588 -116.375537 316 3908ft 137kts
07-Jan-18 16:09 33.724050 -116.406077 316 3157ft 125kts
07-Jan-18 16:10 33.748870 -116.433902 320 2425ft 121kts
07-Jan-18 16:11 33.776300 -116.459988 322 1627ft 130kts
07-Jan-18 16:12 33.804976 -116.485744 323 978ft 128kts
07-Jan-18 16:13 33.830541 -116.508511 323 482ft 80kts
07-Jan-18 16:14 33.833059 -116.511742 234 482ft 0kts
07-Jan-18 16:15 33.831618 -116.511573 140 482ft 15kts
07-Jan-18 16:16 33.827484 -116.509307 186 482ft 9kts
07-Jan-18 16:17 33.826892 -116.509610 267 482ft 0kts
07-Jan-18 16:18 33.826892 -116.509610 267 482ft 0kts

Navigation Log

Ident Type
Flight plan parsing failed, navigation log unavailable